Time;durP1;ratioP1;P1;durP2;ratioP2;P2;SDS_P1;SDS_P2;PMS_P1;PMS_P2;Temp;Humidity;BMP_temperature;BMP_pressure;BME280_temperature;BME280_humidity;BME280_pressure;Samples;Min_cycle;Max_cycle;Signal;HPM_P1;HPM_P2
2022/05/02 00:00:51;;;;;;;11.93;6.90;;;5.70;99.90;;;;;;5133109;27;20047;-83
2022/05/02 00:03:17;;;;;;;11.93;6.68;;;5.70;99.90;;;;;;5131096;27;20350;-83
2022/05/02 00:05:43;;;;;;;12.48;7.07;;;5.70;99.90;;;;;;5132304;27;20056;-83
2022/05/02 00:08:09;;;;;;;11.52;6.85;;;5.70;99.90;;;;;;5132023;27;20394;-83
2022/05/02 00:10:35;;;;;;;10.40;7.18;;;5.70;99.90;;;;;;5131061;28;20044;-83
2022/05/02 00:13:01;;;;;;;11.20;6.72;;;5.70;99.90;;;;;;5132108;27;20532;-83
2022/05/02 00:15:27;;;;;;;10.52;7.03;;;6.20;99.90;;;;;;5132493;27;20515;-83
2022/05/02 00:17:56;;;;;;;11.60;7.10;;;6.00;99.90;;;;;;5133121;27;20051;-84
2022/05/02 00:20:27;;;;;;;11.80;7.38;;;5.80;99.90;;;;;;5131895;28;20058;-83
2022/05/02 00:22:53;;;;;;;12.75;7.70;;;5.80;99.90;;;;;;5139161;28;20050;-83
2022/05/02 00:25:19;;;;;;;12.15;7.15;;;5.70;99.90;;;;;;5131525;28;20112;-83
2022/05/02 00:27:46;;;;;;;14.00;7.75;;;5.70;99.90;;;;;;5114098;28;20043;-83
2022/05/02 00:30:12;;;;;;;13.55;8.00;;;5.70;99.90;;;;;;5130760;28;20051;-83
2022/05/02 00:32:39;;;;;;;12.10;7.25;;;5.80;99.90;;;;;;5113907;28;20473;-83
2022/05/02 00:35:06;;;;;;;13.10;7.72;;;5.80;99.90;;;;;;5132216;27;20031;-83
2022/05/02 00:37:32;;;;;;;12.93;8.18;;;5.70;99.90;;;;;;5132024;27;20383;-83
2022/05/02 00:39:58;;;;;;;13.23;7.97;;;5.70;99.90;;;;;;5130821;28;20054;-83
2022/05/02 00:42:24;;;;;;;12.30;7.63;;;5.70;99.90;;;;;;5131282;28;20050;-83
2022/05/02 00:44:50;;;;;;;10.55;7.32;;;5.70;99.90;;;;;;5132052;27;20043;-85
2022/05/02 00:47:20;;;;;;;12.38;7.72;;;5.70;99.90;;;;;;5122631;28;20099;-83
2022/05/02 00:49:48;;;;;;;13.38;7.90;;;5.60;99.90;;;;;;5130904;28;20047;-83
2022/05/02 00:52:13;;;;;;;13.18;8.25;;;5.60;99.90;;;;;;5131708;28;20031;-83
2022/05/02 00:54:40;;;;;;;11.95;7.32;;;5.60;99.90;;;;;;5121086;28;20093;-84
2022/05/02 00:57:09;;;;;;;12.35;7.32;;;5.60;99.90;;;;;;5122167;28;20101;-83
2022/05/02 00:59:38;;;;;;;12.57;7.75;;;5.90;99.90;;;;;;5121614;28;20035;-83
2022/05/02 01:02:05;;;;;;;13.05;8.18;;;5.60;99.90;;;;;;5121486;28;20055;-83
2022/05/02 01:04:31;;;;;;;13.68;8.05;;;5.60;99.90;;;;;;5122054;28;20043;-83
2022/05/02 01:07:10;;;;;;;12.27;8.25;;;5.50;99.90;;;;;;5121958;28;20074;-84
2022/05/02 01:09:38;;;;;;;13.93;7.97;;;5.50;99.90;;;;;;5118607;28;20039;-83
2022/05/02 01:12:14;;;;;;;14.50;8.18;;;5.40;99.90;;;;;;5099035;28;20047;-84
2022/05/02 01:14:42;;;;;;;13.65;7.88;;;5.40;99.90;;;;;;5133036;27;20062;-83
2022/05/02 01:17:09;;;;;;;16.73;8.23;;;5.40;99.90;;;;;;5118069;28;20052;-83
2022/05/02 01:19:35;;;;;;;13.52;8.00;;;5.30;99.90;;;;;;5117174;28;20047;-83
2022/05/02 01:22:03;;;;;;;13.75;8.65;;;5.30;99.90;;;;;;5117209;28;20092;-83
2022/05/02 01:24:34;;;;;;;12.80;8.65;;;5.20;99.90;;;;;;5115708;28;20075;-83
2022/05/02 01:27:00;;;;;;;12.65;8.25;;;5.20;99.90;;;;;;5115816;28;20040;-84
2022/05/02 01:29:25;;;;;;;14.38;8.48;;;5.20;99.90;;;;;;5116839;28;20131;-84
2022/05/02 01:31:54;;;;;;;14.85;9.00;;;5.20;99.90;;;;;;5115437;28;20075;-84
2022/05/02 01:34:20;;;;;;;12.35;8.25;;;5.10;99.90;;;;;;5115563;28;20495;-83
2022/05/02 01:36:45;;;;;;;13.70;8.65;;;5.10;99.90;;;;;;5115757;28;20047;-83
2022/05/02 01:39:11;;;;;;;15.20;9.55;;;5.10;99.90;;;;;;5115741;28;20031;-83
2022/05/02 01:41:37;;;;;;;15.65;9.00;;;5.10;99.90;;;;;;5116523;28;20088;-83
2022/05/02 01:44:03;;;;;;;13.77;8.57;;;5.00;99.90;;;;;;5115187;28;20167;-84
2022/05/02 01:46:28;;;;;;;16.95;9.20;;;5.00;99.90;;;;;;5115435;28;20078;-83
2022/05/02 01:48:56;;;;;;;14.50;9.02;;;4.90;99.90;;;;;;5116737;28;20043;-83
2022/05/02 01:51:21;;;;;;;15.30;9.18;;;5.00;99.90;;;;;;5115363;28;20040;-83
2022/05/02 01:53:47;;;;;;;13.60;9.00;;;5.00;99.90;;;;;;5115126;28;20070;-84
2022/05/02 01:56:13;;;;;;;16.05;9.32;;;4.90;99.90;;;;;;5115119;28;20108;-83
2022/05/02 01:58:38;;;;;;;17.45;9.52;;;4.90;99.90;;;;;;5115574;28;20127;-83
2022/05/02 02:01:04;;;;;;;14.30;9.35;;;4.90;99.90;;;;;;5115344;28;20071;-83
2022/05/02 02:03:30;;;;;;;16.67;9.48;;;4.80;99.90;;;;;;5116427;28;20046;-83
2022/05/02 02:05:58;;;;;;;15.02;9.52;;;4.80;99.90;;;;;;5113629;28;20040;-83
2022/05/02 02:08:24;;;;;;;14.90;9.85;;;4.80;99.90;;;;;;5115177;28;20478;-83
2022/05/02 02:10:59;;;;;;;15.32;9.40;;;4.80;99.90;;;;;;5114823;28;20093;-84
2022/05/02 02:13:25;;;;;;;15.75;10.00;;;4.80;99.90;;;;;;5116530;28;20078;-83
2022/05/02 02:15:51;;;;;;;14.60;9.50;;;4.70;99.90;;;;;;5115309;28;20043;-83
2022/05/02 02:18:17;;;;;;;17.00;10.10;;;4.70;99.90;;;;;;5116410;28;20541;-83
2022/05/02 02:20:45;;;;;;;15.15;10.20;;;4.70;99.90;;;;;;5115239;28;20043;-84
2022/05/02 02:23:12;;;;;;;15.85;9.65;;;4.60;99.90;;;;;;5117322;28;20052;-83
2022/05/02 02:25:38;;;;;;;18.70;10.48;;;4.60;99.90;;;;;;5115784;28;20392;-83
2022/05/02 02:28:04;;;;;;;18.35;10.40;;;4.50;99.90;;;;;;5114771;28;20050;-83
2022/05/02 02:30:30;;;;;;;17.70;9.75;;;4.50;99.90;;;;;;5140689;27;20023;-83
2022/05/02 02:33:00;;;;;;;16.77;10.23;;;4.50;99.90;;;;;;5139452;28;20050;-83
2022/05/02 02:35:27;;;;;;;17.58;11.23;;;4.50;99.90;;;;;;5132119;28;20035;-83
2022/05/02 02:37:53;;;;;;;19.20;10.77;;;4.50;99.90;;;;;;5115028;28;20568;-83
2022/05/02 02:40:19;;;;;;;17.45;10.77;;;4.60;99.90;;;;;;5115596;28;20085;-83
2022/05/02 02:42:45;;;;;;;17.80;11.23;;;4.50;99.90;;;;;;5114440;28;20055;-83
2022/05/02 02:45:11;;;;;;;20.13;10.65;;;4.60;99.90;;;;;;5115990;28;20044;-83
2022/05/02 02:47:37;;;;;;;18.15;10.90;;;4.50;99.90;;;;;;5115864;28;20040;-83
2022/05/02 02:50:03;;;;;;;19.90;11.68;;;4.50;99.90;;;;;;5114537;28;20044;-83
2022/05/02 02:52:29;;;;;;;18.83;10.80;;;4.50;99.90;;;;;;5114507;28;20047;-83
2022/05/02 02:54:55;;;;;;;18.90;10.15;;;4.40;99.90;;;;;;5115558;28;20444;-83
2022/05/02 02:57:21;;;;;;;16.45;10.40;;;4.40;99.90;;;;;;5114206;28;20058;-83
2022/05/02 02:59:47;;;;;;;19.83;11.02;;;4.30;99.90;;;;;;5115069;28;20491;-83
2022/05/02 03:02:13;;;;;;;20.63;11.55;;;4.30;99.90;;;;;;5113670;28;20138;-83
2022/05/02 03:07:25;;;;;;;20.10;11.00;;;4.20;99.90;;;;;;5114137;28;20471;-83
2022/05/02 03:09:51;;;;;;;19.65;11.00;;;4.20;99.90;;;;;;5114273;28;20055;-83
2022/05/02 03:12:18;;;;;;;20.60;11.43;;;4.20;99.90;;;;;;5114914;28;20047;-83
2022/05/02 03:14:43;;;;;;;20.58;11.73;;;4.20;99.90;;;;;;5114711;28;20474;-83
2022/05/02 03:17:09;;;;;;;18.52;11.20;;;4.20;99.90;;;;;;5114867;28;20040;-83
2022/05/02 03:19:35;;;;;;;20.33;11.15;;;4.20;99.90;;;;;;5114727;28;20471;-83
2022/05/02 03:22:00;;;;;;;21.17;11.75;;;4.10;99.90;;;;;;5115173;28;20039;-83
2022/05/02 03:24:26;;;;;;;20.52;11.77;;;4.10;99.90;;;;;;5096728;28;20402;-83
2022/05/02 03:26:51;;;;;;;16.98;10.90;;;4.10;99.90;;;;;;5113985;28;20047;-83
2022/05/02 03:29:17;;;;;;;18.95;11.10;;;4.10;99.90;;;;;;5130347;27;20051;-83
2022/05/02 03:31:43;;;;;;;18.30;11.45;;;4.10;99.90;;;;;;5115097;28;20043;-83
2022/05/02 03:34:08;;;;;;;20.58;11.23;;;4.10;99.90;;;;;;5113126;28;20039;-83
2022/05/02 03:36:35;;;;;;;19.45;11.77;;;4.00;99.90;;;;;;5114564;28;20048;-83
2022/05/02 03:39:01;;;;;;;19.38;11.23;;;4.00;99.90;;;;;;5096136;28;20035;-83
2022/05/02 03:41:27;;;;;;;19.13;11.27;;;3.90;99.90;;;;;;5095940;28;20499;-83
2022/05/02 03:43:52;;;;;;;18.20;10.82;;;3.90;99.90;;;;;;5114935;28;20090;-83
2022/05/02 03:46:18;;;;;;;20.45;11.43;;;4.00;99.90;;;;;;5114301;28;20360;-83
2022/05/02 03:48:44;;;;;;;19.67;10.80;;;3.90;99.90;;;;;;5118098;28;20054;-83
2022/05/02 03:51:10;;;;;;;17.98;11.32;;;3.90;99.90;;;;;;5121259;28;20085;-83
2022/05/02 03:53:36;;;;;;;20.95;11.65;;;3.90;99.90;;;;;;5113784;28;20051;-83
2022/05/02 03:56:02;;;;;;;20.17;11.38;;;3.80;99.90;;;;;;5096516;28;20503;-83
2022/05/02 03:58:27;;;;;;;20.95;11.85;;;3.80;99.90;;;;;;5114485;28;20096;-84
2022/05/02 04:00:53;;;;;;;20.35;11.77;;;3.80;99.90;;;;;;5114518;28;20040;-83
2022/05/02 04:03:19;;;;;;;18.83;11.35;;;3.80;99.90;;;;;;5112831;28;20063;-83
2022/05/02 04:05:45;;;;;;;23.70;13.38;;;3.80;99.90;;;;;;5113287;28;20040;-84
2022/05/02 04:08:10;;;;;;;24.17;13.65;;;3.80;99.90;;;;;;5114238;28;20212;-83
2022/05/02 04:10:36;;;;;;;24.00;12.80;;;3.80;99.90;;;;;;5113322;28;20054;-83
2022/05/02 04:13:01;;;;;;;21.85;12.90;;;3.70;99.90;;;;;;5112718;28;20046;-83
2022/05/02 04:15:27;;;;;;;22.10;12.80;;;3.80;99.90;;;;;;5133742;27;20044;-83
2022/05/02 04:17:55;;;;;;;24.42;13.18;;;3.70;99.90;;;;;;5123574;28;20127;-83
2022/05/02 04:20:21;;;;;;;23.40;13.52;;;3.70;99.90;;;;;;5113412;28;20043;-83
2022/05/02 04:22:47;;;;;;;23.35;14.07;;;3.70;99.90;;;;;;5114189;28;20058;-83
2022/05/02 04:25:12;;;;;;;25.15;14.02;;;3.70;99.90;;;;;;5114108;28;20036;-83
2022/05/02 04:27:38;;;;;;;25.17;14.77;;;3.70;99.90;;;;;;5113806;28;20131;-83
2022/05/02 04:30:06;;;;;;;27.95;14.68;;;3.70;99.90;;;;;;5117055;28;20040;-83
2022/05/02 04:32:31;;;;;;;26.90;15.32;;;3.70;99.90;;;;;;5116384;28;20047;-83
2022/05/02 04:34:58;;;;;;;24.77;14.85;;;3.70;99.90;;;;;;5116375;28;20119;-84
2022/05/02 04:37:24;;;;;;;26.83;15.05;;;3.70;99.90;;;;;;5116468;28;20047;-83
2022/05/02 04:39:51;;;;;;;28.67;15.23;;;3.80;99.90;;;;;;5117532;28;20044;-83
2022/05/02 04:42:17;;;;;;;24.77;13.82;;;3.80;99.90;;;;;;5117666;28;20058;-83
2022/05/02 04:44:43;;;;;;;27.02;14.75;;;3.80;99.90;;;;;;5131037;28;20047;-83
2022/05/02 04:47:08;;;;;;;29.80;15.82;;;3.90;99.90;;;;;;5132100;28;20147;-84
2022/05/02 04:49:34;;;;;;;24.30;14.45;;;3.80;99.90;;;;;;5117735;28;20082;-83
2022/05/02 04:51:59;;;;;;;30.95;15.80;;;3.90;99.90;;;;;;5117692;28;20048;-83
2022/05/02 04:54:25;;;;;;;25.42;15.23;;;4.00;99.90;;;;;;5134155;27;20043;-84
2022/05/02 04:56:50;;;;;;;27.27;14.90;;;4.00;99.90;;;;;;5116087;28;20047;-84
2022/05/02 04:59:16;;;;;;;28.95;14.52;;;4.10;99.90;;;;;;5099348;28;20036;-83
2022/05/02 05:01:42;;;;;;;26.60;14.00;;;4.10;99.90;;;;;;5116278;28;20055;-83
2022/05/02 05:04:09;;;;;;;27.48;14.32;;;4.10;99.90;;;;;;5117442;28;20127;-84
2022/05/02 05:06:35;;;;;;;26.55;14.90;;;4.20;99.90;;;;;;5117397;28;20164;-85
2022/05/02 05:09:01;;;;;;;26.23;14.95;;;4.20;99.90;;;;;;5116263;28;20039;-83
2022/05/02 05:11:29;;;;;;;28.05;14.75;;;4.30;99.90;;;;;;5117318;28;20115;-84
2022/05/02 05:17:25;;;;;;;26.13;14.52;;;4.40;99.90;;;;;;5054682;28;20060;-84
2022/05/02 05:19:50;;;;;;;31.58;16.00;;;4.50;99.90;;;;;;5020889;28;20163;-83
2022/05/02 05:22:36;;;;;;;26.73;14.38;;;4.60;99.90;;;;;;5037536;28;20415;-84
2022/05/02 05:25:33;;;;;;;24.88;14.05;;;4.70;99.90;;;;;;5054568;28;20397;-86
2022/05/02 05:28:01;;;;;;;29.52;15.32;;;4.80;99.90;;;;;;5049445;28;20057;-84
2022/05/02 05:30:31;;;;;;;24.77;14.00;;;4.90;99.90;;;;;;5038989;28;20048;-81
2022/05/02 05:33:12;;;;;;;26.10;14.40;;;4.90;99.90;;;;;;5044337;28;20083;-81
2022/05/02 05:39:28;;;;;;;25.38;14.07;;;5.20;99.90;;;;;;5061352;28;20107;-81
2022/05/02 05:42:20;;;;;;;25.27;14.35;;;5.30;99.90;;;;;;5044334;28;20053;-82
2022/05/02 05:45:10;;;;;;;26.13;13.95;;;5.40;99.90;;;;;;5044242;28;20045;-81
2022/05/02 05:47:57;;;;;;;22.67;12.80;;;5.80;99.90;;;;;;5044454;28;20053;-81
2022/05/02 05:50:29;;;;;;;22.27;13.40;;;5.60;99.90;;;;;;5045222;28;20048;-81
2022/05/02 05:53:22;;;;;;;27.15;13.93;;;5.70;99.90;;;;;;5081861;28;20081;-81
2022/05/02 05:56:23;;;;;;;23.02;13.32;;;5.80;99.90;;;;;;5123314;28;20039;-82
2022/05/02 05:59:08;;;;;;;26.13;13.93;;;6.00;99.90;;;;;;5125409;28;20043;-81
2022/05/02 06:01:49;;;;;;;25.20;13.75;;;6.10;99.90;;;;;;5124883;28;20043;-82
2022/05/02 06:07:58;;;;;;;21.05;12.52;;;6.40;99.90;;;;;;5122146;28;20054;-82
2022/05/02 06:10:25;;;;;;;21.80;12.18;;;6.50;99.90;;;;;;5122191;28;20123;-82
2022/05/02 06:12:54;;;;;;;21.30;11.43;;;6.70;99.90;;;;;;5120225;28;20054;-82
2022/05/02 06:24:36;;;;;;;19.98;10.27;;;7.20;99.90;;;;;;5124851;28;20096;-81
2022/05/02 06:27:03;;;;;;;20.02;10.63;;;7.40;99.90;;;;;;5120664;28;20075;-81
2022/05/02 06:29:29;;;;;;;16.67;9.93;;;7.50;99.90;;;;;;5121315;28;20123;-82
2022/05/02 06:31:58;;;;;;;17.00;9.43;;;7.70;99.90;;;;;;5121246;28;20075;-82
2022/05/02 06:34:28;;;;;;;19.02;10.40;;;8.10;99.90;;;;;;5121828;28;20126;-81
2022/05/02 06:37:18;;;;;;;15.15;8.90;;;7.90;99.90;;;;;;5118476;28;20078;-82
2022/05/02 06:40:04;;;;;;;13.95;8.77;;;8.10;99.90;;;;;;5118596;28;20071;-82
2022/05/02 06:42:33;;;;;;;17.85;8.90;;;8.20;99.90;;;;;;5119488;28;20052;-81
2022/05/02 06:45:22;;;;;;;12.27;7.85;;;8.40;99.90;;;;;;5119376;28;20117;-82
2022/05/02 06:48:28;;;;;;;14.90;8.55;;;8.50;99.90;;;;;;5120333;28;20052;-81
2022/05/02 06:51:06;;;;;;;17.58;9.35;;;8.60;99.90;;;;;;5120515;28;20075;-82
2022/05/02 06:54:09;;;;;;;12.02;8.25;;;8.70;99.90;;;;;;5118576;28;20475;-82
2022/05/02 06:56:40;;;;;;;12.85;8.23;;;8.90;99.90;;;;;;5119596;28;20047;-82
2022/05/02 06:59:10;;;;;;;15.18;8.45;;;9.00;99.90;;;;;;5118860;28;20044;-82
2022/05/02 07:01:58;;;;;;;13.52;8.35;;;9.10;99.90;;;;;;5118414;28;20027;-82
2022/05/02 07:08:07;;;;;;;12.90;8.18;;;9.40;99.90;;;;;;5119232;28;20081;-82
2022/05/02 07:10:38;;;;;;;14.18;7.75;;;9.60;99.90;;;;;;5117435;28;20043;-82
2022/05/02 07:13:34;;;;;;;13.23;8.55;;;9.60;99.90;;;;;;5116334;28;20088;-82
2022/05/02 07:16:22;;;;;;;14.05;7.70;;;9.70;99.90;;;;;;5117733;28;20096;-82
2022/05/02 07:19:03;;;;;;;13.18;8.30;;;9.80;99.90;;;;;;5116399;28;20124;-82
2022/05/02 07:25:19;;;;;;;12.82;7.82;;;10.00;99.90;;;;;;5126551;28;20134;-82
2022/05/02 07:28:29;;;;;;;13.43;7.90;;;10.30;99.90;;;;;;5122008;28;20044;-82
2022/05/02 07:30:58;;;;;;;17.73;7.55;;;10.30;99.90;;;;;;5101746;28;20048;-82
2022/05/02 07:33:33;;;;;;;15.45;8.00;;;10.40;99.90;;;;;;5113936;28;20040;-82
2022/05/02 07:36:02;;;;;;;11.98;7.90;;;10.80;99.90;;;;;;5113985;28;20071;-82
2022/05/02 07:38:33;;;;;;;11.18;7.63;;;10.60;99.90;;;;;;5115522;28;20047;-82
2022/05/02 07:43:49;;;;;;;12.48;7.53;;;10.90;99.90;;;;;;5119763;28;20454;-82
2022/05/02 07:46:20;;;;;;;12.30;7.85;;;11.20;99.90;;;;;;5119418;28;20095;-82
2022/05/02 07:48:49;;;;;;;10.75;7.50;;;11.20;99.90;;;;;;5115656;28;20496;-82
2022/05/02 07:51:15;;;;;;;11.35;7.25;;;11.30;99.90;;;;;;5115487;28;20401;-82
2022/05/02 07:53:43;;;;;;;18.52;7.72;;;11.40;99.90;;;;;;5130856;28;20044;-82
2022/05/02 07:56:10;;;;;;;10.77;7.15;;;11.70;99.90;;;;;;5115756;28;20422;-82
2022/05/02 07:58:47;;;;;;;11.00;7.00;;;11.60;99.90;;;;;;5114697;28;20048;-82
2022/05/02 08:01:18;;;;;;;10.45;6.70;;;11.70;99.90;;;;;;5115388;28;20467;-82
2022/05/02 08:03:44;;;;;;;10.70;6.50;;;11.80;99.90;;;;;;5114229;28;20043;-83
2022/05/02 08:06:21;;;;;;;12.50;7.05;;;12.00;99.90;;;;;;5117534;28;20048;-82
2022/05/02 08:09:02;;;;;;;12.43;7.15;;;12.00;99.90;;;;;;5126646;28;20048;-82
2022/05/02 08:11:49;;;;;;;14.32;6.80;;;12.10;99.90;;;;;;5118836;28;20054;-82
2022/05/02 08:14:22;;;;;;;10.75;6.93;;;12.20;99.90;;;;;;5119774;28;20052;-82
2022/05/02 08:17:16;;;;;;;9.35;6.40;;;12.30;99.90;;;;;;5118068;28;20053;-82
2022/05/02 08:29:51;;;;;;;12.30;7.10;;;12.80;99.90;;;;;;5118895;28;20513;-82
2022/05/02 08:33:04;;;;;;;11.93;7.53;;;13.00;99.90;;;;;;5116910;28;20054;-82
2022/05/02 08:35:55;;;;;;;10.45;6.45;;;13.20;99.90;;;;;;5113867;28;20494;-82
2022/05/02 08:38:53;;;;;;;9.30;6.13;;;13.40;99.90;;;;;;5117051;28;20047;-82
2022/05/02 08:41:32;;;;;;;13.50;6.75;;;13.50;99.90;;;;;;5117469;28;20086;-82
2022/05/02 08:44:55;;;;;;;12.85;6.50;;;13.60;99.90;;;;;;5117183;28;20059;-82
2022/05/02 08:47:39;;;;;;;10.80;6.45;;;13.70;99.90;;;;;;5055600;28;20140;-82
2022/05/02 08:53:54;;;;;;;9.30;6.10;;;13.80;99.90;;;;;;5055033;28;20039;-82
2022/05/02 08:56:22;;;;;;;9.32;6.45;;;13.90;99.90;;;;;;5038535;28;20056;-82
2022/05/02 08:58:56;;;;;;;9.30;6.18;;;14.00;99.90;;;;;;5055363;28;20195;-82
2022/05/02 09:02:08;;;;;;;10.65;6.50;;;14.10;99.90;;;;;;5056600;28;20077;-82
2022/05/02 09:08:41;;;;;;;9.80;6.57;;;14.30;99.90;;;;;;4976416;28;20046;-82
2022/05/02 09:11:33;;;;;;;11.38;6.85;;;14.20;99.90;;;;;;4959784;28;20197;-82
2022/05/02 09:14:22;;;;;;;9.35;6.25;;;14.40;99.90;;;;;;4975795;28;20043;-82
2022/05/02 09:17:04;;;;;;;12.55;6.32;;;14.40;99.90;;;;;;4981969;28;20110;-82
2022/05/02 09:19:57;;;;;;;8.57;6.45;;;14.60;99.90;;;;;;5054657;28;20041;-82
2022/05/02 09:23:02;;;;;;;9.10;5.80;;;14.70;99.90;;;;;;5054349;28;20442;-82
2022/05/02 09:25:57;;;;;;;10.23;5.97;;;14.80;99.90;;;;;;5055137;28;20502;-82
2022/05/02 09:28:29;;;;;;;9.98;5.95;;;14.90;99.90;;;;;;5055183;28;20063;-82
2022/05/02 09:31:32;;;;;;;10.57;6.43;;;14.80;99.90;;;;;;5039186;28;20489;-82
2022/05/02 09:37:55;;;;;;;8.30;5.93;;;15.10;99.90;;;;;;5014907;28;20049;-82
2022/05/02 09:40:33;;;;;;;10.13;5.97;;;15.30;99.90;;;;;;4998373;28;20046;-82
2022/05/02 09:43:24;;;;;;;14.10;6.25;;;15.40;99.90;;;;;;5037660;28;20052;-82
2022/05/02 09:53:26;;;;;;;8.63;5.72;;;16.00;99.90;;;;;;4994771;28;20453;-82
2022/05/02 09:58:54;;;;;;;10.60;5.50;;;16.20;99.90;;;;;;4994096;28;20078;-82
2022/05/02 10:01:27;;;;;;;8.20;5.68;;;15.70;99.90;;;;;;4994255;28;20101;-82
2022/05/02 10:04:18;;;;;;;8.98;5.75;;;15.40;99.90;;;;;;4977944;28;20126;-82
2022/05/02 10:10:56;;;;;;;9.40;5.45;;;15.20;99.90;;;;;;5056828;28;20036;-83
2022/05/02 10:13:39;;;;;;;9.05;5.05;;;15.40;99.90;;;;;;5036882;28;20071;-83
2022/05/02 10:16:35;;;;;;;8.10;5.63;;;15.80;99.90;;;;;;5053533;28;20033;-82
2022/05/02 10:19:00;;;;;;;;;;;16.10;99.90;;;;;;5054085;28;20065;-82
2022/05/02 10:21:47;;;;;;;8.43;5.40;;;16.40;99.90;;;;;;5052998;28;20318;-82
2022/05/02 10:24:25;;;;;;;7.88;4.95;;;16.40;99.90;;;;;;5053331;28;20484;-83
2022/05/02 10:26:55;;;;;;;8.20;5.90;;;15.90;99.90;;;;;;5115230;28;20082;-82
2022/05/02 10:29:36;;;;;;;8.07;5.28;;;15.50;99.90;;;;;;5115259;28;20126;-82
2022/05/02 10:32:18;;;;;;;10.25;5.68;;;15.10;99.90;;;;;;5116616;28;20096;-83
2022/05/02 10:38:29;;;;;;;10.60;5.30;;;14.90;99.90;;;;;;5116111;28;20127;-82
2022/05/02 10:41:08;;;;;;;8.32;5.65;;;15.40;99.90;;;;;;5116985;28;20067;-82
2022/05/02 10:43:36;;;;;;;6.97;5.13;;;15.80;99.90;;;;;;5114362;28;20520;-82
2022/05/02 10:46:02;;;;;;;8.20;5.00;;;16.20;99.90;;;;;;5115893;28;20104;-82
2022/05/02 10:48:53;;;;;;;8.35;5.03;;;16.40;99.90;;;;;;5115768;28;20047;-82
2022/05/02 10:55:05;;;;;;;6.47;4.70;;;16.60;99.90;;;;;;5115432;28;20042;-82
2022/05/02 10:57:45;;;;;;;8.88;5.28;;;16.30;99.90;;;;;;5113798;28;20112;-83
2022/05/02 11:00:12;;;;;;;9.30;5.65;;;16.20;99.90;;;;;;5132447;27;20051;-83
2022/05/02 11:02:41;;;;;;;7.00;4.90;;;16.30;99.90;;;;;;5114813;28;20486;-83
2022/05/02 11:05:22;;;;;;;6.38;4.60;;;16.50;99.90;;;;;;5115647;28;20080;-82
2022/05/02 11:08:04;;;;;;;6.78;4.50;;;16.70;99.90;;;;;;5130808;27;20490;-82
2022/05/02 11:10:36;;;;;;;7.47;4.47;;;17.00;99.90;;;;;;5113740;28;20152;-83
2022/05/02 11:13:10;;;;;;;10.07;4.75;;;17.20;99.90;;;;;;5115740;28;20051;-82
2022/05/02 11:15:57;;;;;;;8.50;4.72;;;17.50;99.90;;;;;;5113902;28;20098;-83
2022/05/02 11:21:51;;;;;;;8.75;5.60;;;17.60;99.90;;;;;;5113898;28;20079;-82
2022/05/02 11:24:33;;;;;;;7.87;4.60;;;17.30;99.90;;;;;;5113327;28;20113;-82
2022/05/02 11:27:32;;;;;;;6.43;4.35;;;17.50;99.90;;;;;;5115271;28;20474;-82
2022/05/02 11:30:09;;;;;;;6.93;4.10;;;17.50;99.90;;;;;;5114739;28;20398;-82
2022/05/02 11:32:40;;;;;;;8.93;4.28;;;17.70;99.90;;;;;;5114290;28;20494;-82
2022/05/02 11:39:03;;;;;;;5.97;3.80;;;18.20;95.70;;;;;;5114155;28;20081;-82
2022/05/02 11:41:31;;;;;;;11.35;4.53;;;18.20;95.30;;;;;;5113912;28;20051;-82
2022/05/02 11:44:08;;;;;;;6.60;4.10;;;18.10;98.60;;;;;;5112770;28;20440;-82
2022/05/02 11:46:44;;;;;;;9.32;4.57;;;18.40;98.10;;;;;;5114258;28;20063;-81
2022/05/02 11:49:38;;;;;;;7.75;3.97;;;18.50;97.00;;;;;;5130836;28;20058;-83
2022/05/02 11:55:46;;;;;;;5.22;3.55;;;18.70;97.10;;;;;;5114016;28;20043;-83
2022/05/02 11:58:24;;;;;;;6.38;4.32;;;19.00;97.30;;;;;;5112677;28;20090;-83
2022/05/02 12:01:02;;;;;;;5.13;3.75;;;19.10;95.40;;;;;;5113083;28;20051;-82
2022/05/02 12:03:55;;;;;;;7.03;4.25;;;19.30;94.40;;;;;;5114211;28;20130;-83
2022/05/02 12:06:36;;;;;;;5.28;3.80;;;19.40;97.10;;;;;;5102996;28;20061;-82
2022/05/02 12:09:03;;;;;;;5.78;4.03;;;19.60;97.00;;;;;;5112613;28;20047;-83
2022/05/02 12:11:30;;;;;;;5.82;3.50;;;19.80;93.60;;;;;;5114114;28;20036;-83
2022/05/02 12:13:59;;;;;;;4.80;3.40;;;19.80;92.90;;;;;;5113142;28;20047;-82
2022/05/02 12:16:27;;;;;;;5.75;3.72;;;19.70;92.20;;;;;;5119259;28;20043;-83
2022/05/02 12:18:55;;;;;;;5.72;3.90;;;19.70;91.90;;;;;;5112821;28;20127;-83
2022/05/02 12:21:38;;;;;;;5.53;3.38;;;19.80;91.50;;;;;;5116389;28;20046;-82
2022/05/02 12:24:06;;;;;;;5.75;3.42;;;19.90;91.20;;;;;;5123120;28;20063;-82
2022/05/02 12:26:33;;;;;;;5.32;3.38;;;19.80;91.80;;;;;;5126274;28;20039;-82
2022/05/02 12:29:04;;;;;;;5.05;3.30;;;20.10;91.30;;;;;;5116917;28;20055;-83
2022/05/02 12:31:32;;;;;;;7.75;3.78;;;20.20;91.90;;;;;;5112840;28;20044;-83
2022/05/02 12:34:11;;;;;;;6.78;4.15;;;20.40;92.00;;;;;;5114832;28;20441;-82
2022/05/02 12:36:47;;;;;;;6.10;3.90;;;20.30;90.60;;;;;;5113814;28;20391;-83
2022/05/02 12:39:28;;;;;;;6.78;4.00;;;20.30;90.50;;;;;;5112670;28;20051;-82
2022/05/02 12:42:09;;;;;;;6.28;3.58;;;20.30;90.30;;;;;;5115028;28;20116;-82
2022/05/02 12:45:02;;;;;;;5.70;3.72;;;20.10;88.00;;;;;;5116059;28;20062;-82
2022/05/02 12:47:42;;;;;;;7.00;4.30;;;20.10;86.10;;;;;;5038490;28;20527;-83
2022/05/02 12:56:45;;;;;;;5.47;3.50;;;20.00;87.10;;;;;;5038409;28;20518;-83
2022/05/02 13:01:59;;;;;;;5.80;3.27;;;20.10;86.00;;;;;;5054341;28;20115;-83
2022/05/02 13:04:27;;;;;;;4.38;3.10;;;20.30;87.40;;;;;;5054633;28;20060;-82
2022/05/02 13:10:34;;;;;;;4.22;2.97;;;20.40;83.70;;;;;;5054127;28;20035;-83
2022/05/02 13:13:14;;;;;;;5.38;3.30;;;20.30;85.30;;;;;;5054094;28;20124;-83
2022/05/02 13:15:40;;;;;;;4.25;3.10;;;20.40;84.40;;;;;;5037462;28;20049;-82
2022/05/02 13:18:17;;;;;;;4.90;3.65;;;20.40;84.90;;;;;;5055637;28;20490;-83
2022/05/02 13:20:55;;;;;;;5.90;3.30;;;20.00;82.40;;;;;;5038474;28;20048;-83
2022/05/02 13:23:22;;;;;;;4.50;3.10;;;20.40;83.30;;;;;;5041271;28;20053;-83
2022/05/02 13:25:52;;;;;;;7.25;3.40;;;20.40;83.10;;;;;;5116987;28;20101;-83
2022/05/02 13:28:25;;;;;;;5.07;3.10;;;20.60;83.40;;;;;;5115609;28;20413;-82
2022/05/02 13:31:04;;;;;;;5.65;3.25;;;20.80;83.80;;;;;;5116746;28;20045;-83
2022/05/02 13:33:36;;;;;;;5.25;3.70;;;20.70;84.40;;;;;;5115229;28;20078;-83
2022/05/02 13:36:05;;;;;;;5.55;3.40;;;20.70;83.00;;;;;;5115126;28;20058;-83
2022/05/02 13:38:52;;;;;;;6.15;3.67;;;20.70;83.30;;;;;;5115071;28;20043;-82
2022/05/02 13:41:26;;;;;;;6.38;3.63;;;20.80;83.80;;;;;;5115199;28;20122;-83
2022/05/02 13:44:07;;;;;;;6.78;3.60;;;21.00;82.00;;;;;;5131941;27;20104;-83
2022/05/02 13:46:53;;;;;;;6.07;3.30;;;21.20;83.00;;;;;;5115326;28;20043;-83
2022/05/02 13:49:27;;;;;;;5.47;3.80;;;21.30;80.40;;;;;;5114781;28;20044;-83
2022/05/02 13:52:06;;;;;;;4.38;3.08;;;21.00;80.30;;;;;;5114848;28;20054;-83
2022/05/02 13:54:37;;;;;;;5.03;3.28;;;21.40;79.70;;;;;;5116286;28;20394;-83
2022/05/02 13:57:20;;;;;;;4.68;3.10;;;21.40;79.00;;;;;;5116368;28;20044;-83
2022/05/02 14:03:10;;;;;;;3.88;3.00;;;21.30;75.20;;;;;;5118127;28;20062;-83
2022/05/02 14:09:32;;;;;;;6.50;3.17;;;21.30;77.30;;;;;;5116048;28;20080;-83
2022/05/02 14:11:58;;;;;;;4.00;2.78;;;21.20;78.20;;;;;;5115891;28;20055;-83
2022/05/02 14:14:23;;;;;;;4.20;2.70;;;21.50;77.90;;;;;;5114259;28;20043;-83
2022/05/02 14:16:49;;;;;;;4.65;3.47;;;21.50;78.70;;;;;;5115815;28;20159;-83
2022/05/02 14:19:22;;;;;;;4.40;2.67;;;21.50;76.40;;;;;;5115835;28;20398;-83
2022/05/02 14:25:43;;;;;;;5.38;2.80;;;21.70;76.60;;;;;;5115393;28;20092;-83
2022/05/02 14:28:09;;;;;;;5.00;2.63;;;21.30;76.80;;;;;;5114293;28;20086;-83
2022/05/02 14:30:46;;;;;;;4.00;2.40;;;20.50;76.50;;;;;;5115636;28;20470;-83
2022/05/02 14:33:27;;;;;;;4.78;2.80;;;20.70;78.50;;;;;;5114211;28;20474;-83
2022/05/02 14:35:56;;;;;;;3.92;2.78;;;20.90;79.00;;;;;;5115491;28;20039;-83
2022/05/02 14:38:25;;;;;;;5.45;3.03;;;21.10;76.90;;;;;;5115196;27;20557;-83
2022/05/02 14:40:52;;;;;;;4.78;3.05;;;20.70;77.40;;;;;;5113963;28;20048;-83
2022/05/02 14:43:18;;;;;;;6.40;3.50;;;20.10;77.50;;;;;;5115007;28;20066;-82
2022/05/02 14:45:45;;;;;;;5.93;3.00;;;19.70;78.40;;;;;;5115270;28;20052;-83
2022/05/02 14:48:14;;;;;;;4.82;3.38;;;19.60;81.50;;;;;;5114827;28;20467;-83
2022/05/02 14:50:43;;;;;;;5.22;3.38;;;19.70;82.20;;;;;;5115458;28;20049;-83
2022/05/02 14:53:11;;;;;;;4.95;3.63;;;19.30;83.40;;;;;;5113953;28;20055;-83
2022/05/02 14:55:45;;;;;;;5.70;3.97;;;19.00;84.60;;;;;;5118118;28;20047;-82
2022/05/02 14:58:19;;;;;;;7.03;3.45;;;18.70;84.50;;;;;;5114583;28;20051;-83
2022/05/02 15:00:52;;;;;;;5.88;3.00;;;18.30;86.20;;;;;;5115201;28;20047;-83
2022/05/02 15:03:27;;;;;;;5.00;3.80;;;17.90;87.10;;;;;;5113708;28;20486;-82